sensor_id;sensor_type;location;lat;lon;timestamp;P1;durP1;ratioP1;P2;durP2;ratioP2
10248;SDS011;5169;50.560;9.714;2024-02-26T00:01:51;2.83;;;2.17;;
10248;SDS011;5169;50.560;9.714;2024-02-26T00:04:17;2.40;;;1.93;;
10248;SDS011;5169;50.560;9.714;2024-02-26T00:06:43;3.07;;;2.27;;
10248;SDS011;5169;50.560;9.714;2024-02-26T00:09:09;2.70;;;2.03;;
10248;SDS011;5169;50.560;9.714;2024-02-26T00:11:37;2.30;;;1.73;;
10248;SDS011;5169;50.560;9.714;2024-02-26T00:14:02;2.17;;;1.70;;
10248;SDS011;5169;50.560;9.714;2024-02-26T00:16:31;4.03;;;1.70;;
10248;SDS011;5169;50.560;9.714;2024-02-26T00:18:57;1.60;;;1.37;;
10248;SDS011;5169;50.560;9.714;2024-02-26T00:21:23;1.77;;;1.63;;
10248;SDS011;5169;50.560;9.714;2024-02-26T00:23:49;1.90;;;1.50;;
10248;SDS011;5169;50.560;9.714;2024-02-26T00:26:15;1.60;;;1.50;;
10248;SDS011;5169;50.560;9.714;2024-02-26T00:28:41;1.50;;;1.40;;
10248;SDS011;5169;50.560;9.714;2024-02-26T00:31:07;2.13;;;1.70;;
10248;SDS011;5169;50.560;9.714;2024-02-26T00:33:32;1.90;;;1.40;;
10248;SDS011;5169;50.560;9.714;2024-02-26T00:35:58;2.07;;;1.50;;
10248;SDS011;5169;50.560;9.714;2024-02-26T00:38:23;3.27;;;2.00;;
10248;SDS011;5169;50.560;9.714;2024-02-26T00:40:49;3.77;;;2.17;;
10248;SDS011;5169;50.560;9.714;2024-02-26T00:43:16;4.23;;;2.70;;
10248;SDS011;5169;50.560;9.714;2024-02-26T00:45:45;3.57;;;2.40;;
10248;SDS011;5169;50.560;9.714;2024-02-26T00:48:12;3.63;;;2.50;;
10248;SDS011;5169;50.560;9.714;2024-02-26T00:50:40;3.87;;;2.50;;
10248;SDS011;5169;50.560;9.714;2024-02-26T00:53:08;2.10;;;1.67;;
10248;SDS011;5169;50.560;9.714;2024-02-26T00:55:36;2.30;;;1.70;;
10248;SDS011;5169;50.560;9.714;2024-02-26T00:58:04;1.73;;;1.60;;
10248;SDS011;5169;50.560;9.714;2024-02-26T01:00:30;1.60;;;1.50;;
10248;SDS011;5169;50.560;9.714;2024-02-26T01:02:55;2.43;;;1.50;;
10248;SDS011;5169;50.560;9.714;2024-02-26T01:05:21;2.80;;;1.70;;
10248;SDS011;5169;50.560;9.714;2024-02-26T01:07:47;2.53;;;1.73;;
10248;SDS011;5169;50.560;9.714;2024-02-26T01:10:12;1.80;;;1.40;;
10248;SDS011;5169;50.560;9.714;2024-02-26T01:12:38;1.70;;;1.40;;
10248;SDS011;5169;50.560;9.714;2024-02-26T01:15:04;2.07;;;1.30;;
10248;SDS011;5169;50.560;9.714;2024-02-26T01:17:30;1.60;;;1.20;;
10248;SDS011;5169;50.560;9.714;2024-02-26T01:19:55;1.20;;;1.10;;
10248;SDS011;5169;50.560;9.714;2024-02-26T01:22:23;1.77;;;1.30;;
10248;SDS011;5169;50.560;9.714;2024-02-26T01:24:49;2.10;;;1.20;;
10248;SDS011;5169;50.560;9.714;2024-02-26T01:27:15;1.13;;;1.03;;
10248;SDS011;5169;50.560;9.714;2024-02-26T01:29:41;1.57;;;0.90;;
10248;SDS011;5169;50.560;9.714;2024-02-26T01:32:06;1.70;;;1.37;;
10248;SDS011;5169;50.560;9.714;2024-02-26T01:34:32;1.50;;;1.20;;
10248;SDS011;5169;50.560;9.714;2024-02-26T01:36:58;1.33;;;1.00;;
10248;SDS011;5169;50.560;9.714;2024-02-26T01:39:24;1.77;;;1.20;;
10248;SDS011;5169;50.560;9.714;2024-02-26T01:41:54;0.93;;;0.83;;
10248;SDS011;5169;50.560;9.714;2024-02-26T01:44:19;3.53;;;0.97;;
10248;SDS011;5169;50.560;9.714;2024-02-26T01:46:45;2.13;;;1.40;;
10248;SDS011;5169;50.560;9.714;2024-02-26T01:49:13;2.53;;;1.70;;
10248;SDS011;5169;50.560;9.714;2024-02-26T01:51:39;6.43;;;4.20;;
10248;SDS011;5169;50.560;9.714;2024-02-26T01:54:07;7.43;;;4.93;;
10248;SDS011;5169;50.560;9.714;2024-02-26T01:56:36;10.53;;;6.60;;
10248;SDS011;5169;50.560;9.714;2024-02-26T01:59:05;8.73;;;4.80;;
10248;SDS011;5169;50.560;9.714;2024-02-26T02:01:32;7.53;;;5.10;;
10248;SDS011;5169;50.560;9.714;2024-02-26T02:04:01;5.70;;;4.03;;
10248;SDS011;5169;50.560;9.714;2024-02-26T02:06:29;3.43;;;2.30;;
10248;SDS011;5169;50.560;9.714;2024-02-26T02:08:55;1.90;;;1.67;;
10248;SDS011;5169;50.560;9.714;2024-02-26T02:11:25;2.93;;;1.90;;
10248;SDS011;5169;50.560;9.714;2024-02-26T02:13:51;3.23;;;2.20;;
10248;SDS011;5169;50.560;9.714;2024-02-26T02:16:17;3.40;;;2.20;;
10248;SDS011;5169;50.560;9.714;2024-02-26T02:18:42;2.30;;;1.83;;
10248;SDS011;5169;50.560;9.714;2024-02-26T02:21:08;2.40;;;1.80;;
10248;SDS011;5169;50.560;9.714;2024-02-26T02:23:34;2.60;;;1.70;;
10248;SDS011;5169;50.560;9.714;2024-02-26T02:26:01;2.17;;;1.50;;
10248;SDS011;5169;50.560;9.714;2024-02-26T02:28:27;2.60;;;1.80;;
10248;SDS011;5169;50.560;9.714;2024-02-26T02:30:53;1.90;;;1.50;;
10248;SDS011;5169;50.560;9.714;2024-02-26T02:33:19;2.53;;;1.50;;
10248;SDS011;5169;50.560;9.714;2024-02-26T02:35:46;2.63;;;1.57;;
10248;SDS011;5169;50.560;9.714;2024-02-26T02:38:12;2.33;;;1.53;;
10248;SDS011;5169;50.560;9.714;2024-02-26T02:40:37;1.97;;;1.40;;
10248;SDS011;5169;50.560;9.714;2024-02-26T02:43:03;5.10;;;2.60;;
10248;SDS011;5169;50.560;9.714;2024-02-26T02:45:29;2.63;;;2.00;;
10248;SDS011;5169;50.560;9.714;2024-02-26T02:47:55;4.73;;;2.40;;
10248;SDS011;5169;50.560;9.714;2024-02-26T02:50:21;3.93;;;2.30;;
10248;SDS011;5169;50.560;9.714;2024-02-26T02:52:46;4.63;;;2.87;;
10248;SDS011;5169;50.560;9.714;2024-02-26T02:55:13;6.40;;;3.83;;
10248;SDS011;5169;50.560;9.714;2024-02-26T02:57:38;6.90;;;3.77;;
10248;SDS011;5169;50.560;9.714;2024-02-26T03:00:09;4.40;;;3.20;;
10248;SDS011;5169;50.560;9.714;2024-02-26T03:02:35;4.00;;;2.60;;
10248;SDS011;5169;50.560;9.714;2024-02-26T03:05:04;4.37;;;2.80;;
10248;SDS011;5169;50.560;9.714;2024-02-26T03:07:30;4.90;;;2.27;;
10248;SDS011;5169;50.560;9.714;2024-02-26T03:09:56;3.87;;;2.60;;
10248;SDS011;5169;50.560;9.714;2024-02-26T03:12:26;2.90;;;2.40;;
10248;SDS011;5169;50.560;9.714;2024-02-26T03:14:52;4.07;;;2.60;;
10248;SDS011;5169;50.560;9.714;2024-02-26T03:17:20;4.67;;;2.53;;
10248;SDS011;5169;50.560;9.714;2024-02-26T03:19:46;4.27;;;2.70;;
10248;SDS011;5169;50.560;9.714;2024-02-26T03:22:12;4.10;;;3.00;;
10248;SDS011;5169;50.560;9.714;2024-02-26T03:24:40;3.73;;;2.97;;
10248;SDS011;5169;50.560;9.714;2024-02-26T03:27:06;3.50;;;2.77;;
10248;SDS011;5169;50.560;9.714;2024-02-26T03:29:34;3.40;;;2.60;;
10248;SDS011;5169;50.560;9.714;2024-02-26T03:32:00;3.27;;;2.50;;
10248;SDS011;5169;50.560;9.714;2024-02-26T03:34:28;2.97;;;2.20;;
10248;SDS011;5169;50.560;9.714;2024-02-26T03:36:56;3.57;;;2.20;;
10248;SDS011;5169;50.560;9.714;2024-02-26T03:39:26;2.23;;;1.93;;
10248;SDS011;5169;50.560;9.714;2024-02-26T03:41:54;3.23;;;2.10;;
10248;SDS011;5169;50.560;9.714;2024-02-26T03:44:22;3.17;;;2.50;;
10248;SDS011;5169;50.560;9.714;2024-02-26T03:46:48;3.27;;;2.00;;
10248;SDS011;5169;50.560;9.714;2024-02-26T03:49:13;2.93;;;1.97;;
10248;SDS011;5169;50.560;9.714;2024-02-26T03:51:39;3.53;;;2.10;;
10248;SDS011;5169;50.560;9.714;2024-02-26T03:54:04;3.00;;;1.90;;
10248;SDS011;5169;50.560;9.714;2024-02-26T03:56:30;2.73;;;1.83;;
10248;SDS011;5169;50.560;9.714;2024-02-26T03:58:58;3.20;;;1.90;;
10248;SDS011;5169;50.560;9.714;2024-02-26T04:01:25;2.70;;;1.90;;
10248;SDS011;5169;50.560;9.714;2024-02-26T04:03:50;2.20;;;1.73;;
10248;SDS011;5169;50.560;9.714;2024-02-26T04:06:17;2.43;;;1.90;;
10248;SDS011;5169;50.560;9.714;2024-02-26T04:08:45;2.30;;;2.00;;
10248;SDS011;5169;50.560;9.714;2024-02-26T04:11:11;3.63;;;2.00;;
10248;SDS011;5169;50.560;9.714;2024-02-26T04:13:42;3.07;;;2.13;;
10248;SDS011;5169;50.560;9.714;2024-02-26T04:16:13;2.43;;;2.20;;
10248;SDS011;5169;50.560;9.714;2024-02-26T04:18:39;2.30;;;2.10;;
10248;SDS011;5169;50.560;9.714;2024-02-26T04:21:05;2.50;;;1.90;;
10248;SDS011;5169;50.560;9.714;2024-02-26T04:23:32;2.30;;;2.00;;
10248;SDS011;5169;50.560;9.714;2024-02-26T04:25:58;2.60;;;1.83;;
10248;SDS011;5169;50.560;9.714;2024-02-26T04:28:23;2.30;;;1.80;;
10248;SDS011;5169;50.560;9.714;2024-02-26T04:30:51;2.90;;;1.83;;
10248;SDS011;5169;50.560;9.714;2024-02-26T04:33:16;2.83;;;2.00;;
10248;SDS011;5169;50.560;9.714;2024-02-26T04:35:44;2.20;;;1.90;;
10248;SDS011;5169;50.560;9.714;2024-02-26T04:38:10;2.57;;;1.83;;
10248;SDS011;5169;50.560;9.714;2024-02-26T04:40:35;2.30;;;1.60;;
10248;SDS011;5169;50.560;9.714;2024-02-26T04:43:03;2.63;;;1.83;;
10248;SDS011;5169;50.560;9.714;2024-02-26T04:45:31;2.60;;;1.80;;
10248;SDS011;5169;50.560;9.714;2024-02-26T04:47:57;1.87;;;1.50;;
10248;SDS011;5169;50.560;9.714;2024-02-26T04:50:25;1.97;;;1.40;;
10248;SDS011;5169;50.560;9.714;2024-02-26T04:52:53;2.93;;;1.43;;
10248;SDS011;5169;50.560;9.714;2024-02-26T04:55:18;2.77;;;1.53;;
10248;SDS011;5169;50.560;9.714;2024-02-26T04:57:44;3.53;;;1.70;;
10248;SDS011;5169;50.560;9.714;2024-02-26T05:00:10;1.53;;;1.17;;
10248;SDS011;5169;50.560;9.714;2024-02-26T05:02:38;2.27;;;1.80;;
10248;SDS011;5169;50.560;9.714;2024-02-26T05:05:09;1.80;;;1.53;;
10248;SDS011;5169;50.560;9.714;2024-02-26T05:07:41;2.50;;;1.80;;
10248;SDS011;5169;50.560;9.714;2024-02-26T05:10:07;2.17;;;1.60;;
10248;SDS011;5169;50.560;9.714;2024-02-26T05:12:33;2.27;;;1.47;;
10248;SDS011;5169;50.560;9.714;2024-02-26T05:15:00;2.23;;;1.70;;
10248;SDS011;5169;50.560;9.714;2024-02-26T05:17:29;2.63;;;1.87;;
10248;SDS011;5169;50.560;9.714;2024-02-26T05:19:54;2.40;;;1.80;;
10248;SDS011;5169;50.560;9.714;2024-02-26T05:22:20;1.97;;;1.73;;
10248;SDS011;5169;50.560;9.714;2024-02-26T05:24:45;3.47;;;1.93;;
10248;SDS011;5169;50.560;9.714;2024-02-26T05:27:13;2.83;;;2.00;;
10248;SDS011;5169;50.560;9.714;2024-02-26T05:29:41;2.23;;;1.87;;
10248;SDS011;5169;50.560;9.714;2024-02-26T05:32:06;3.13;;;2.10;;
10248;SDS011;5169;50.560;9.714;2024-02-26T05:34:32;2.77;;;2.00;;
10248;SDS011;5169;50.560;9.714;2024-02-26T05:36:58;2.17;;;1.90;;
10248;SDS011;5169;50.560;9.714;2024-02-26T05:39:24;2.73;;;1.97;;
10248;SDS011;5169;50.560;9.714;2024-02-26T05:41:49;6.27;;;3.70;;
10248;SDS011;5169;50.560;9.714;2024-02-26T05:44:17;6.20;;;3.80;;
10248;SDS011;5169;50.560;9.714;2024-02-26T05:46:43;5.10;;;3.77;;
10248;SDS011;5169;50.560;9.714;2024-02-26T05:49:08;5.70;;;4.13;;
10248;SDS011;5169;50.560;9.714;2024-02-26T05:51:36;5.50;;;4.10;;
10248;SDS011;5169;50.560;9.714;2024-02-26T05:54:01;5.60;;;4.20;;
10248;SDS011;5169;50.560;9.714;2024-02-26T05:56:27;5.30;;;3.90;;
10248;SDS011;5169;50.560;9.714;2024-02-26T05:58:53;5.53;;;3.37;;
10248;SDS011;5169;50.560;9.714;2024-02-26T06:01:20;5.77;;;4.10;;
10248;SDS011;5169;50.560;9.714;2024-02-26T06:03:46;5.13;;;3.90;;
10248;SDS011;5169;50.560;9.714;2024-02-26T06:06:11;5.50;;;3.80;;
10248;SDS011;5169;50.560;9.714;2024-02-26T06:08:40;5.37;;;3.37;;
10248;SDS011;5169;50.560;9.714;2024-02-26T06:11:08;4.80;;;3.43;;
10248;SDS011;5169;50.560;9.714;2024-02-26T06:13:34;5.40;;;3.73;;
10248;SDS011;5169;50.560;9.714;2024-02-26T06:16:00;5.20;;;3.80;;
10248;SDS011;5169;50.560;9.714;2024-02-26T06:18:28;5.37;;;4.00;;
10248;SDS011;5169;50.560;9.714;2024-02-26T06:20:54;5.43;;;3.73;;
10248;SDS011;5169;50.560;9.714;2024-02-26T06:23:20;5.60;;;3.73;;
10248;SDS011;5169;50.560;9.714;2024-02-26T06:25:50;5.17;;;3.23;;
10248;SDS011;5169;50.560;9.714;2024-02-26T06:28:15;4.03;;;2.93;;
10248;SDS011;5169;50.560;9.714;2024-02-26T06:30:41;5.33;;;3.50;;
10248;SDS011;5169;50.560;9.714;2024-02-26T06:33:07;7.80;;;4.03;;
10248;SDS011;5169;50.560;9.714;2024-02-26T06:35:32;4.63;;;3.27;;
10248;SDS011;5169;50.560;9.714;2024-02-26T06:37:58;6.30;;;3.50;;
10248;SDS011;5169;50.560;9.714;2024-02-26T06:40:25;5.83;;;3.80;;
10248;SDS011;5169;50.560;9.714;2024-02-26T06:42:50;7.60;;;4.70;;
10248;SDS011;5169;50.560;9.714;2024-02-26T06:45:16;7.20;;;4.57;;
10248;SDS011;5169;50.560;9.714;2024-02-26T06:47:43;12.23;;;6.97;;
10248;SDS011;5169;50.560;9.714;2024-02-26T06:50:09;4.40;;;3.80;;
10248;SDS011;5169;50.560;9.714;2024-02-26T06:52:36;4.67;;;3.00;;
10248;SDS011;5169;50.560;9.714;2024-02-26T06:55:04;6.00;;;4.30;;
10248;SDS011;5169;50.560;9.714;2024-02-26T06:57:33;6.83;;;4.70;;
10248;SDS011;5169;50.560;9.714;2024-02-26T06:59:58;6.33;;;4.37;;
10248;SDS011;5169;50.560;9.714;2024-02-26T07:02:24;4.80;;;3.47;;
10248;SDS011;5169;50.560;9.714;2024-02-26T07:04:50;5.83;;;3.20;;
10248;SDS011;5169;50.560;9.714;2024-02-26T07:07:15;4.33;;;3.23;;
10248;SDS011;5169;50.560;9.714;2024-02-26T07:09:42;6.63;;;5.00;;
10248;SDS011;5169;50.560;9.714;2024-02-26T07:12:08;7.10;;;5.10;;
10248;SDS011;5169;50.560;9.714;2024-02-26T07:14:34;5.70;;;4.23;;
10248;SDS011;5169;50.560;9.714;2024-02-26T07:17:00;5.20;;;3.60;;
10248;SDS011;5169;50.560;9.714;2024-02-26T07:19:25;4.27;;;3.50;;
10248;SDS011;5169;50.560;9.714;2024-02-26T07:21:51;13.23;;;6.57;;
10248;SDS011;5169;50.560;9.714;2024-02-26T07:24:17;8.30;;;5.43;;
10248;SDS011;5169;50.560;9.714;2024-02-26T07:26:42;6.63;;;4.10;;
10248;SDS011;5169;50.560;9.714;2024-02-26T07:29:08;6.53;;;3.23;;
10248;SDS011;5169;50.560;9.714;2024-02-26T07:31:33;4.03;;;2.70;;
10248;SDS011;5169;50.560;9.714;2024-02-26T07:34:04;3.90;;;2.50;;
10248;SDS011;5169;50.560;9.714;2024-02-26T07:36:33;4.50;;;2.73;;
10248;SDS011;5169;50.560;9.714;2024-02-26T07:38:58;4.57;;;2.40;;
10248;SDS011;5169;50.560;9.714;2024-02-26T07:41:26;2.80;;;2.50;;
10248;SDS011;5169;50.560;9.714;2024-02-26T07:43:54;4.60;;;2.67;;
10248;SDS011;5169;50.560;9.714;2024-02-26T07:46:22;3.33;;;2.90;;
10248;SDS011;5169;50.560;9.714;2024-02-26T07:48:50;5.20;;;2.43;;
10248;SDS011;5169;50.560;9.714;2024-02-26T07:51:15;7.20;;;3.33;;
10248;SDS011;5169;50.560;9.714;2024-02-26T07:53:42;4.30;;;3.10;;
10248;SDS011;5169;50.560;9.714;2024-02-26T07:56:08;3.57;;;2.57;;
10248;SDS011;5169;50.560;9.714;2024-02-26T07:58:34;4.73;;;3.10;;
10248;SDS011;5169;50.560;9.714;2024-02-26T08:01:00;4.33;;;3.10;;
10248;SDS011;5169;50.560;9.714;2024-02-26T08:03:28;5.00;;;2.73;;
10248;SDS011;5169;50.560;9.714;2024-02-26T08:05:54;4.47;;;2.60;;
10248;SDS011;5169;50.560;9.714;2024-02-26T08:08:22;3.60;;;2.93;;
10248;SDS011;5169;50.560;9.714;2024-02-26T08:10:48;4.23;;;2.60;;
10248;SDS011;5169;50.560;9.714;2024-02-26T08:13:16;3.60;;;2.37;;
10248;SDS011;5169;50.560;9.714;2024-02-26T08:15:43;3.20;;;2.57;;
10248;SDS011;5169;50.560;9.714;2024-02-26T08:18:09;4.00;;;2.73;;
10248;SDS011;5169;50.560;9.714;2024-02-26T08:20:34;4.03;;;2.87;;
10248;SDS011;5169;50.560;9.714;2024-02-26T08:23:00;3.77;;;2.80;;
10248;SDS011;5169;50.560;9.714;2024-02-26T08:25:25;4.67;;;2.80;;
10248;SDS011;5169;50.560;9.714;2024-02-26T08:27:51;4.63;;;2.90;;
10248;SDS011;5169;50.560;9.714;2024-02-26T08:30:17;4.23;;;2.87;;
10248;SDS011;5169;50.560;9.714;2024-02-26T08:32:45;4.37;;;3.00;;
10248;SDS011;5169;50.560;9.714;2024-02-26T08:35:12;5.97;;;4.40;;
10248;SDS011;5169;50.560;9.714;2024-02-26T08:37:38;4.70;;;3.87;;
10248;SDS011;5169;50.560;9.714;2024-02-26T08:40:06;5.73;;;3.80;;
10248;SDS011;5169;50.560;9.714;2024-02-26T08:42:32;4.63;;;3.57;;
10248;SDS011;5169;50.560;9.714;2024-02-26T08:44:57;4.87;;;3.40;;
10248;SDS011;5169;50.560;9.714;2024-02-26T08:47:26;5.07;;;4.00;;
10248;SDS011;5169;50.560;9.714;2024-02-26T08:49:54;3.90;;;3.30;;
10248;SDS011;5169;50.560;9.714;2024-02-26T08:52:19;6.73;;;4.60;;
10248;SDS011;5169;50.560;9.714;2024-02-26T08:54:46;6.40;;;4.47;;
10248;SDS011;5169;50.560;9.714;2024-02-26T08:57:12;6.23;;;4.30;;
10248;SDS011;5169;50.560;9.714;2024-02-26T08:59:40;6.37;;;4.90;;
10248;SDS011;5169;50.560;9.714;2024-02-26T09:02:07;7.60;;;4.60;;
10248;SDS011;5169;50.560;9.714;2024-02-26T09:04:35;6.57;;;4.00;;
10248;SDS011;5169;50.560;9.714;2024-02-26T09:07:01;7.13;;;4.23;;
10248;SDS011;5169;50.560;9.714;2024-02-26T09:09:27;5.70;;;4.30;;
10248;SDS011;5169;50.560;9.714;2024-02-26T09:11:55;4.77;;;3.80;;
10248;SDS011;5169;50.560;9.714;2024-02-26T09:14:21;5.40;;;3.63;;
10248;SDS011;5169;50.560;9.714;2024-02-26T09:16:47;5.40;;;4.00;;
10248;SDS011;5169;50.560;9.714;2024-02-26T09:19:17;4.90;;;3.30;;
10248;SDS011;5169;50.560;9.714;2024-02-26T09:21:45;10.13;;;3.57;;
10248;SDS011;5169;50.560;9.714;2024-02-26T09:24:13;4.07;;;3.40;;
10248;SDS011;5169;50.560;9.714;2024-02-26T09:26:40;5.17;;;3.40;;
10248;SDS011;5169;50.560;9.714;2024-02-26T09:29:05;4.73;;;3.20;;
10248;SDS011;5169;50.560;9.714;2024-02-26T09:31:31;3.73;;;3.10;;
10248;SDS011;5169;50.560;9.714;2024-02-26T09:33:59;4.20;;;3.40;;
10248;SDS011;5169;50.560;9.714;2024-02-26T09:36:27;5.13;;;3.23;;
10248;SDS011;5169;50.560;9.714;2024-02-26T09:38:53;4.70;;;3.30;;
10248;SDS011;5169;50.560;9.714;2024-02-26T09:41:21;4.10;;;3.50;;
10248;SDS011;5169;50.560;9.714;2024-02-26T09:43:47;4.20;;;3.33;;
10248;SDS011;5169;50.560;9.714;2024-02-26T09:46:19;4.33;;;3.53;;
10248;SDS011;5169;50.560;9.714;2024-02-26T09:48:47;7.67;;;3.40;;
10248;SDS011;5169;50.560;9.714;2024-02-26T09:51:13;4.77;;;3.50;;
10248;SDS011;5169;50.560;9.714;2024-02-26T09:53:39;5.87;;;3.77;;
10248;SDS011;5169;50.560;9.714;2024-02-26T09:56:10;5.87;;;3.77;;
10248;SDS011;5169;50.560;9.714;2024-02-26T09:58:39;6.80;;;3.83;;
10248;SDS011;5169;50.560;9.714;2024-02-26T10:01:13;5.87;;;3.87;;
10248;SDS011;5169;50.560;9.714;2024-02-26T10:03:42;3.50;;;3.13;;
10248;SDS011;5169;50.560;9.714;2024-02-26T10:06:12;4.80;;;3.40;;
10248;SDS011;5169;50.560;9.714;2024-02-26T10:08:40;3.93;;;3.53;;
10248;SDS011;5169;50.560;9.714;2024-02-26T10:11:09;5.03;;;3.20;;
10248;SDS011;5169;50.560;9.714;2024-02-26T10:13:35;5.37;;;3.23;;
10248;SDS011;5169;50.560;9.714;2024-02-26T10:16:04;5.30;;;3.40;;
10248;SDS011;5169;50.560;9.714;2024-02-26T10:18:46;7.07;;;3.40;;
10248;SDS011;5169;50.560;9.714;2024-02-26T10:21:11;4.17;;;3.10;;
10248;SDS011;5169;50.560;9.714;2024-02-26T10:23:41;4.80;;;3.40;;
10248;SDS011;5169;50.560;9.714;2024-02-26T10:26:07;4.67;;;3.17;;
10248;SDS011;5169;50.560;9.714;2024-02-26T10:28:35;4.63;;;3.60;;
10248;SDS011;5169;50.560;9.714;2024-02-26T10:31:03;3.47;;;3.03;;
10248;SDS011;5169;50.560;9.714;2024-02-26T10:33:29;3.97;;;3.30;;
10248;SDS011;5169;50.560;9.714;2024-02-26T10:35:55;5.87;;;3.50;;
10248;SDS011;5169;50.560;9.714;2024-02-26T10:38:20;4.27;;;3.27;;
10248;SDS011;5169;50.560;9.714;2024-02-26T10:40:46;4.20;;;3.60;;
10248;SDS011;5169;50.560;9.714;2024-02-26T10:43:16;4.73;;;3.37;;
10248;SDS011;5169;50.560;9.714;2024-02-26T10:45:43;4.40;;;3.10;;
10248;SDS011;5169;50.560;9.714;2024-02-26T10:48:10;3.60;;;2.80;;
10248;SDS011;5169;50.560;9.714;2024-02-26T10:50:38;6.57;;;3.10;;
10248;SDS011;5169;50.560;9.714;2024-02-26T10:53:04;6.53;;;3.57;;
10248;SDS011;5169;50.560;9.714;2024-02-26T10:55:36;7.87;;;3.80;;
10248;SDS011;5169;50.560;9.714;2024-02-26T10:58:02;4.60;;;3.10;;
10248;SDS011;5169;50.560;9.714;2024-02-26T11:00:29;5.43;;;3.10;;
10248;SDS011;5169;50.560;9.714;2024-02-26T11:02:56;4.20;;;2.80;;
10248;SDS011;5169;50.560;9.714;2024-02-26T11:05:26;5.50;;;2.93;;
10248;SDS011;5169;50.560;9.714;2024-02-26T11:07:53;3.10;;;2.47;;
10248;SDS011;5169;50.560;9.714;2024-02-26T11:10:20;3.10;;;2.57;;
10248;SDS011;5169;50.560;9.714;2024-02-26T11:12:51;4.40;;;2.93;;
10248;SDS011;5169;50.560;9.714;2024-02-26T11:15:17;3.87;;;2.63;;
10248;SDS011;5169;50.560;9.714;2024-02-26T11:17:46;2.93;;;2.40;;
10248;SDS011;5169;50.560;9.714;2024-02-26T11:20:15;3.40;;;2.80;;
10248;SDS011;5169;50.560;9.714;2024-02-26T11:22:42;4.53;;;2.90;;
10248;SDS011;5169;50.560;9.714;2024-02-26T11:25:10;4.73;;;2.60;;
10248;SDS011;5169;50.560;9.714;2024-02-26T11:27:39;3.30;;;2.60;;
10248;SDS011;5169;50.560;9.714;2024-02-26T11:30:11;4.93;;;2.67;;
10248;SDS011;5169;50.560;9.714;2024-02-26T11:32:38;5.03;;;3.10;;
10248;SDS011;5169;50.560;9.714;2024-02-26T11:35:07;4.47;;;3.07;;
10248;SDS011;5169;50.560;9.714;2024-02-26T11:37:35;5.00;;;2.83;;
10248;SDS011;5169;50.560;9.714;2024-02-26T11:40:01;4.40;;;3.33;;
10248;SDS011;5169;50.560;9.714;2024-02-26T11:42:27;5.53;;;2.70;;
10248;SDS011;5169;50.560;9.714;2024-02-26T11:44:54;4.20;;;2.97;;
10248;SDS011;5169;50.560;9.714;2024-02-26T11:47:26;4.27;;;2.93;;
10248;SDS011;5169;50.560;9.714;2024-02-26T11:49:52;4.10;;;3.23;;
10248;SDS011;5169;50.560;9.714;2024-02-26T11:52:17;3.80;;;2.80;;
10248;SDS011;5169;50.560;9.714;2024-02-26T11:57:25;5.30;;;2.90;;
10248;SDS011;5169;50.560;9.714;2024-02-26T11:59:55;4.57;;;3.17;;
10248;SDS011;5169;50.560;9.714;2024-02-26T12:05:02;5.33;;;3.00;;
10248;SDS011;5169;50.560;9.714;2024-02-26T12:07:34;4.73;;;3.13;;
10248;SDS011;5169;50.560;9.714;2024-02-26T12:10:22;5.27;;;3.30;;
10248;SDS011;5169;50.560;9.714;2024-02-26T12:15:41;4.60;;;3.30;;
10248;SDS011;5169;50.560;9.714;2024-02-26T12:18:08;5.33;;;3.20;;
10248;SDS011;5169;50.560;9.714;2024-02-26T12:20:38;5.83;;;3.10;;
10248;SDS011;5169;50.560;9.714;2024-02-26T12:23:08;4.03;;;2.80;;
10248;SDS011;5169;50.560;9.714;2024-02-26T12:25:39;5.47;;;2.53;;
10248;SDS011;5169;50.560;9.714;2024-02-26T12:28:04;3.50;;;2.90;;
10248;SDS011;5169;50.560;9.714;2024-02-26T12:30:32;4.53;;;2.77;;
10248;SDS011;5169;50.560;9.714;2024-02-26T12:32:59;3.70;;;2.43;;
10248;SDS011;5169;50.560;9.714;2024-02-26T12:35:25;4.70;;;3.00;;
10248;SDS011;5169;50.560;9.714;2024-02-26T12:37:56;3.50;;;2.70;;
10248;SDS011;5169;50.560;9.714;2024-02-26T12:40:22;2.80;;;2.23;;
10248;SDS011;5169;50.560;9.714;2024-02-26T12:42:48;2.90;;;2.10;;
10248;SDS011;5169;50.560;9.714;2024-02-26T12:45:14;3.07;;;2.10;;
10248;SDS011;5169;50.560;9.714;2024-02-26T12:47:42;3.47;;;2.20;;
10248;SDS011;5169;50.560;9.714;2024-02-26T12:50:09;4.57;;;2.47;;
10248;SDS011;5169;50.560;9.714;2024-02-26T12:52:36;3.77;;;2.50;;
10248;SDS011;5169;50.560;9.714;2024-02-26T12:55:11;3.90;;;2.70;;
10248;SDS011;5169;50.560;9.714;2024-02-26T12:57:40;3.30;;;2.70;;
10248;SDS011;5169;50.560;9.714;2024-02-26T13:00:08;3.57;;;2.37;;
10248;SDS011;5169;50.560;9.714;2024-02-26T13:02:39;6.10;;;2.33;;
10248;SDS011;5169;50.560;9.714;2024-02-26T13:05:07;3.60;;;2.50;;
10248;SDS011;5169;50.560;9.714;2024-02-26T13:07:34;3.20;;;2.50;;
10248;SDS011;5169;50.560;9.714;2024-02-26T13:10:06;3.67;;;2.40;;
10248;SDS011;5169;50.560;9.714;2024-02-26T13:12:33;2.60;;;2.20;;
10248;SDS011;5169;50.560;9.714;2024-02-26T13:14:59;3.17;;;2.23;;
10248;SDS011;5169;50.560;9.714;2024-02-26T13:17:25;3.17;;;2.30;;
10248;SDS011;5169;50.560;9.714;2024-02-26T13:19:53;3.47;;;2.03;;
10248;SDS011;5169;50.560;9.714;2024-02-26T13:22:21;3.33;;;2.57;;
10248;SDS011;5169;50.560;9.714;2024-02-26T13:24:56;2.70;;;2.10;;
10248;SDS011;5169;50.560;9.714;2024-02-26T13:27:24;2.43;;;1.80;;
10248;SDS011;5169;50.560;9.714;2024-02-26T13:30:14;2.33;;;2.07;;
10248;SDS011;5169;50.560;9.714;2024-02-26T13:32:39;2.73;;;2.27;;
10248;SDS011;5169;50.560;9.714;2024-02-26T13:35:06;4.97;;;2.17;;
10248;SDS011;5169;50.560;9.714;2024-02-26T13:37:36;3.43;;;2.30;;
10248;SDS011;5169;50.560;9.714;2024-02-26T13:40:07;2.20;;;2.00;;
10248;SDS011;5169;50.560;9.714;2024-02-26T13:42:34;5.23;;;2.90;;
10248;SDS011;5169;50.560;9.714;2024-02-26T13:45:01;2.20;;;1.70;;
10248;SDS011;5169;50.560;9.714;2024-02-26T13:47:27;1.70;;;1.50;;
10248;SDS011;5169;50.560;9.714;2024-02-26T13:49:53;3.13;;;2.00;;
10248;SDS011;5169;50.560;9.714;2024-02-26T13:52:18;2.43;;;1.90;;
10248;SDS011;5169;50.560;9.714;2024-02-26T13:54:47;2.87;;;2.07;;
10248;SDS011;5169;50.560;9.714;2024-02-26T13:57:14;2.57;;;2.07;;
10248;SDS011;5169;50.560;9.714;2024-02-26T13:59:40;2.10;;;1.60;;
10248;SDS011;5169;50.560;9.714;2024-02-26T14:02:08;2.90;;;2.10;;
10248;SDS011;5169;50.560;9.714;2024-02-26T14:04:38;4.57;;;2.53;;
10248;SDS011;5169;50.560;9.714;2024-02-26T14:07:07;2.83;;;2.13;;
10248;SDS011;5169;50.560;9.714;2024-02-26T14:09:35;2.33;;;1.80;;
10248;SDS011;5169;50.560;9.714;2024-02-26T14:12:01;2.30;;;1.90;;
10248;SDS011;5169;50.560;9.714;2024-02-26T14:14:27;2.70;;;1.90;;
10248;SDS011;5169;50.560;9.714;2024-02-26T14:16:53;3.00;;;2.30;;
10248;SDS011;5169;50.560;9.714;2024-02-26T14:19:19;3.70;;;2.37;;
10248;SDS011;5169;50.560;9.714;2024-02-26T14:21:44;3.17;;;2.00;;
10248;SDS011;5169;50.560;9.714;2024-02-26T14:24:10;2.53;;;2.13;;
10248;SDS011;5169;50.560;9.714;2024-02-26T14:26:35;2.37;;;1.80;;
10248;SDS011;5169;50.560;9.714;2024-02-26T14:29:01;2.13;;;1.60;;
10248;SDS011;5169;50.560;9.714;2024-02-26T14:31:28;2.97;;;2.13;;
10248;SDS011;5169;50.560;9.714;2024-02-26T14:33:54;2.30;;;1.97;;
10248;SDS011;5169;50.560;9.714;2024-02-26T14:36:20;2.57;;;1.80;;
10248;SDS011;5169;50.560;9.714;2024-02-26T14:38:46;4.03;;;2.43;;
10248;SDS011;5169;50.560;9.714;2024-02-26T14:41:13;2.83;;;2.07;;
10248;SDS011;5169;50.560;9.714;2024-02-26T14:43:41;2.43;;;2.10;;
10248;SDS011;5169;50.560;9.714;2024-02-26T14:46:07;3.10;;;2.33;;
10248;SDS011;5169;50.560;9.714;2024-02-26T14:48:33;3.03;;;2.57;;
10248;SDS011;5169;50.560;9.714;2024-02-26T14:51:04;3.67;;;2.43;;
10248;SDS011;5169;50.560;9.714;2024-02-26T14:53:31;3.43;;;2.50;;
10248;SDS011;5169;50.560;9.714;2024-02-26T14:55:57;4.33;;;2.67;;
10248;SDS011;5169;50.560;9.714;2024-02-26T14:58:25;6.07;;;3.13;;
10248;SDS011;5169;50.560;9.714;2024-02-26T15:00:51;4.27;;;2.97;;
10248;SDS011;5169;50.560;9.714;2024-02-26T15:03:16;4.57;;;3.07;;
10248;SDS011;5169;50.560;9.714;2024-02-26T15:05:42;4.30;;;3.13;;
10248;SDS011;5169;50.560;9.714;2024-02-26T15:08:08;4.87;;;3.67;;